createdAt,value
2023-03-22T00:01:11.181Z,8.15
2023-03-22T00:03:38.777Z,8.00
2023-03-22T00:06:06.535Z,7.93
2023-03-22T00:08:33.521Z,8.30
2023-03-22T00:11:00.700Z,7.65
2023-03-22T00:13:27.636Z,8.38
2023-03-22T00:15:57.725Z,7.53
2023-03-22T00:18:24.599Z,8.98
2023-03-22T00:20:53.896Z,7.95
2023-03-22T00:23:21.299Z,8.90
2023-03-22T00:25:48.722Z,8.73
2023-03-22T00:28:16.820Z,8.15
2023-03-22T00:30:50.990Z,8.25
2023-03-22T00:33:17.839Z,7.88
2023-03-22T00:35:58.116Z,8.18
2023-03-22T00:38:39.683Z,8.55
2023-03-22T00:41:11.257Z,8.35
2023-03-22T00:43:38.525Z,9.00
2023-03-22T00:46:05.833Z,8.73
2023-03-22T00:48:33.041Z,9.02
2023-03-22T00:51:00.263Z,9.07
2023-03-22T00:53:29.166Z,9.27
2023-03-22T00:55:59.913Z,9.05
2023-03-22T00:58:26.955Z,8.52
2023-03-22T01:00:54.048Z,9.63
2023-03-22T01:03:22.044Z,9.10
2023-03-22T01:05:49.745Z,8.80
2023-03-22T01:08:16.845Z,10.20
2023-03-22T01:10:45.083Z,9.23
2023-03-22T01:13:12.489Z,9.48
2023-03-22T01:15:41.851Z,9.07
2023-03-22T01:18:09.360Z,8.50
2023-03-22T01:20:38.254Z,8.82
2023-03-22T01:23:05.526Z,9.13
2023-03-22T01:25:32.355Z,9.25
2023-03-22T01:27:59.729Z,8.65
2023-03-22T01:30:26.638Z,9.38
2023-03-22T01:32:53.794Z,9.15
2023-03-22T01:35:20.743Z,8.65
2023-03-22T01:37:47.593Z,8.52
2023-03-22T01:40:15.521Z,8.68
2023-03-22T01:42:42.498Z,9.02
2023-03-22T01:45:15.871Z,8.50
2023-03-22T01:47:49.462Z,8.70
2023-03-22T01:50:17.709Z,8.80
2023-03-22T01:52:44.918Z,8.85
2023-03-22T01:55:12.981Z,9.38
2023-03-22T01:57:41.546Z,9.32
2023-03-22T02:00:15.373Z,8.95
2023-03-22T02:02:44.460Z,9.20
2023-03-22T02:05:12.438Z,10.05
2023-03-22T02:07:42.678Z,9.15
2023-03-22T02:10:18.948Z,9.52
2023-03-22T02:12:56.441Z,10.20
2023-03-22T02:15:43.889Z,9.15
2023-03-22T02:18:34.788Z,8.80
2023-03-22T02:21:04.615Z,9.75
2023-03-22T02:23:34.515Z,9.35
2023-03-22T02:26:16.689Z,9.65
2023-03-22T02:29:03.513Z,10.55
2023-03-22T02:31:39.303Z,10.57
2023-03-22T02:34:20.509Z,9.13
2023-03-22T02:36:47.698Z,9.80
2023-03-22T02:39:41.081Z,10.52
2023-03-22T02:45:08.856Z,10.13
2023-03-22T02:47:38.650Z,10.43
2023-03-22T02:50:30.973Z,10.70
2023-03-22T02:53:01.076Z,10.60
2023-03-22T02:55:38.147Z,10.52
2023-03-22T02:58:19.192Z,10.38
2023-03-22T03:00:49.525Z,10.48
2023-03-22T03:03:18.427Z,10.88
2023-03-22T03:05:51.200Z,10.57
2023-03-22T03:08:19.863Z,11.93
2023-03-22T03:10:48.119Z,11.07
2023-03-22T03:13:16.991Z,11.70
2023-03-22T03:15:48.776Z,11.70
2023-03-22T03:18:52.845Z,11.40
2023-03-22T03:21:38.114Z,11.05
2023-03-22T03:24:36.664Z,11.30
2023-03-22T03:27:17.317Z,11.75
2023-03-22T03:29:59.760Z,11.93
2023-03-22T03:32:44.950Z,12.18
2023-03-22T03:35:22.722Z,11.85
2023-03-22T03:38:01.527Z,11.63
2023-03-22T03:40:34.921Z,12.07
2023-03-22T03:43:04.946Z,11.18
2023-03-22T03:45:32.822Z,11.35
2023-03-22T03:48:03.982Z,11.73
2023-03-22T03:50:32.602Z,10.93
2023-03-22T03:52:59.483Z,11.98
2023-03-22T03:55:27.683Z,11.52
2023-03-22T03:57:54.719Z,10.90
2023-03-22T04:00:21.602Z,10.88
2023-03-22T04:02:48.751Z,10.75
2023-03-22T04:05:15.870Z,12.57
2023-03-22T04:07:42.693Z,10.77
2023-03-22T04:10:10.019Z,10.25
2023-03-22T04:12:37.193Z,11.70
2023-03-22T04:15:04.202Z,10.23
2023-03-22T04:17:32.181Z,10.68
2023-03-22T04:19:59.338Z,10.40
2023-03-22T04:22:27.015Z,10.20
2023-03-22T04:24:54.143Z,9.63
2023-03-22T04:27:22.760Z,9.63
2023-03-22T04:29:51.329Z,9.25
2023-03-22T04:32:19.408Z,10.05
2023-03-22T04:34:46.843Z,9.25
2023-03-22T04:37:14.712Z,9.35
2023-03-22T04:39:43.060Z,8.82
2023-03-22T04:42:10.577Z,9.20
2023-03-22T04:44:37.657Z,8.45
2023-03-22T04:47:04.663Z,8.80
2023-03-22T04:49:31.727Z,8.60
2023-03-22T04:51:58.775Z,9.18
2023-03-22T04:54:25.870Z,9.93
2023-03-22T04:56:53.100Z,9.75
2023-03-22T04:59:20.421Z,8.88
2023-03-22T05:01:48.416Z,9.10
2023-03-22T05:04:16.506Z,10.00
2023-03-22T05:06:43.318Z,9.27
2023-03-22T05:09:12.573Z,8.30
2023-03-22T05:11:40.734Z,9.73
2023-03-22T05:14:10.326Z,9.15
2023-03-22T05:16:41.013Z,8.88
2023-03-22T05:19:14.197Z,8.77
2023-03-22T05:21:44.489Z,8.70
2023-03-22T05:24:12.109Z,10.07
2023-03-22T05:26:42.442Z,9.77
2023-03-22T05:29:11.457Z,8.90
2023-03-22T05:31:38.431Z,9.00
2023-03-22T05:34:05.639Z,9.30
2023-03-22T05:36:32.558Z,9.50
2023-03-22T05:38:59.406Z,11.00
2023-03-22T05:41:26.334Z,9.35
2023-03-22T05:43:53.580Z,10.10
2023-03-22T05:46:20.649Z,9.75
2023-03-22T05:48:47.758Z,9.60
2023-03-22T05:51:27.595Z,9.95
2023-03-22T05:53:54.762Z,9.57
2023-03-22T05:56:24.762Z,9.20
2023-03-22T05:58:51.950Z,9.50
2023-03-22T06:01:20.840Z,9.85
2023-03-22T06:03:49.164Z,9.38
2023-03-22T06:06:16.557Z,8.07
2023-03-22T06:08:44.259Z,8.60
2023-03-22T06:11:11.542Z,8.73
2023-03-22T06:13:38.579Z,7.57
2023-03-22T06:16:08.188Z,7.25
2023-03-22T06:18:35.529Z,7.60
2023-03-22T06:21:02.745Z,7.03
2023-03-22T06:23:29.980Z,7.00
2023-03-22T06:25:57.002Z,6.65
2023-03-22T06:28:24.061Z,5.93
2023-03-22T06:30:51.441Z,5.87
2023-03-22T06:33:18.559Z,4.90
2023-03-22T06:35:45.497Z,4.72
2023-03-22T06:38:12.666Z,4.47
2023-03-22T06:40:40.056Z,5.45
2023-03-22T06:43:08.459Z,5.03
2023-03-22T06:45:36.422Z,4.40
2023-03-22T06:48:03.242Z,4.40
2023-03-22T06:50:30.129Z,3.80
2023-03-22T06:52:57.358Z,4.43
2023-03-22T06:55:26.688Z,4.72
2023-03-22T06:57:54.751Z,4.30
2023-03-22T07:00:22.002Z,3.53
2023-03-22T07:02:50.915Z,4.30
2023-03-22T07:05:19.816Z,3.83
2023-03-22T07:07:46.827Z,3.72
2023-03-22T07:10:13.862Z,3.30
2023-03-22T07:12:41.592Z,3.38
2023-03-22T07:15:08.960Z,2.80
2023-03-22T07:17:35.719Z,3.20
2023-03-22T07:20:21.412Z,3.17
2023-03-22T07:22:51.331Z,3.60
2023-03-22T07:25:18.784Z,2.78
2023-03-22T07:27:45.784Z,2.97
2023-03-22T07:30:13.163Z,3.03
2023-03-22T07:32:41.864Z,3.08
2023-03-22T07:38:43.468Z,2.35
2023-03-22T07:41:10.322Z,2.83
2023-03-22T07:43:50.818Z,2.38
2023-03-22T07:46:19.614Z,2.17
2023-03-22T07:48:46.467Z,2.17
2023-03-22T07:51:13.292Z,2.20
2023-03-22T07:53:40.193Z,2.75
2023-03-22T07:56:07.518Z,2.35
2023-03-22T07:58:35.092Z,2.33
2023-03-22T08:01:09.201Z,1.75
2023-03-22T08:03:37.112Z,2.67
2023-03-22T08:06:08.265Z,2.15
2023-03-22T08:08:37.018Z,1.90
2023-03-22T08:11:05.604Z,2.20
2023-03-22T08:13:32.771Z,1.60
2023-03-22T08:15:59.889Z,1.98
2023-03-22T08:18:27.088Z,1.92
2023-03-22T08:20:58.880Z,2.17
2023-03-22T08:23:40.412Z,2.33
2023-03-22T08:26:10.838Z,2.30
2023-03-22T08:28:37.635Z,1.60
2023-03-22T08:31:13.905Z,1.58
2023-03-22T08:33:43.193Z,1.67
2023-03-22T08:36:13.614Z,1.40
2023-03-22T08:38:42.502Z,2.13
2023-03-22T08:41:09.600Z,1.63
2023-03-22T08:43:36.558Z,1.52
2023-03-22T08:46:03.658Z,2.03
2023-03-22T08:48:30.874Z,1.27
2023-03-22T08:50:58.425Z,1.48
2023-03-22T08:53:25.371Z,1.00
2023-03-22T08:55:52.215Z,1.85
2023-03-22T08:58:21.722Z,1.30
2023-03-22T09:00:49.944Z,1.42
2023-03-22T09:03:17.602Z,1.20
2023-03-22T09:05:44.782Z,1.02
2023-03-22T09:08:18.341Z,1.23
2023-03-22T09:10:52.793Z,1.02
2023-03-22T09:13:20.643Z,0.90
2023-03-22T09:15:48.394Z,1.10
2023-03-22T09:18:16.311Z,0.95
2023-03-22T09:20:44.972Z,1.27
2023-03-22T09:23:12.851Z,0.80
2023-03-22T09:25:43.827Z,1.20
2023-03-22T09:28:11.201Z,1.00
2023-03-22T09:30:38.655Z,0.80
2023-03-22T09:33:07.267Z,1.08
2023-03-22T09:35:34.602Z,1.27
2023-03-22T09:38:01.548Z,0.90
2023-03-22T09:40:33.039Z,0.85
2023-03-22T09:43:04.321Z,1.00
2023-03-22T09:45:45.919Z,1.00
2023-03-22T09:48:19.744Z,1.10
2023-03-22T09:50:53.082Z,0.90
2023-03-22T09:53:21.542Z,0.80
2023-03-22T09:55:57.228Z,1.33
2023-03-22T09:58:28.002Z,0.80
2023-03-22T10:01:21.729Z,0.85
2023-03-22T10:04:07.391Z,0.88
2023-03-22T10:06:34.459Z,1.17
2023-03-22T10:09:14.241Z,0.90
2023-03-22T10:11:57.184Z,0.90
2023-03-22T10:14:39.151Z,0.73
2023-03-22T10:17:23.556Z,0.85
2023-03-22T10:19:54.967Z,0.75
2023-03-22T10:22:27.865Z,0.82
2023-03-22T10:27:23.991Z,0.80
2023-03-22T10:30:36.461Z,1.08
2023-03-22T10:33:11.685Z,0.70
2023-03-22T10:35:38.960Z,0.82
2023-03-22T10:38:22.744Z,0.73
2023-03-22T10:40:51.397Z,1.02
2023-03-22T10:43:32.141Z,0.80
2023-03-22T10:46:02.928Z,0.70
2023-03-22T10:48:33.879Z,1.10
2023-03-22T10:51:02.086Z,0.80
2023-03-22T10:53:38.836Z,0.98
2023-03-22T10:56:11.252Z,0.77
2023-03-22T10:58:38.113Z,0.77
2023-03-22T11:01:09.440Z,0.70
2023-03-22T11:03:36.582Z,1.10
2023-03-22T11:06:08.766Z,0.70
2023-03-22T11:08:57.614Z,0.82
2023-03-22T11:11:38.801Z,0.82
2023-03-22T11:14:14.272Z,0.70
2023-03-22T11:16:43.487Z,0.90
2023-03-22T11:19:18.754Z,0.90
2023-03-22T11:21:45.908Z,1.33
2023-03-22T11:24:14.328Z,1.27
2023-03-22T11:26:41.926Z,1.08
2023-03-22T11:29:18.629Z,1.10
2023-03-22T11:31:56.124Z,1.58
2023-03-22T11:34:30.055Z,0.70
2023-03-22T11:37:01.264Z,0.80
2023-03-22T11:39:29.879Z,1.13
2023-03-22T11:42:00.270Z,1.08
2023-03-22T11:44:32.109Z,1.15
2023-03-22T11:47:01.530Z,0.82
2023-03-22T11:49:57.260Z,0.70
2023-03-22T11:52:27.040Z,1.15
2023-03-22T11:54:55.850Z,1.10
2023-03-22T11:57:31.563Z,0.90
2023-03-22T12:00:11.587Z,1.00
2023-03-22T12:02:46.451Z,1.27
2023-03-22T12:05:23.792Z,0.93
2023-03-22T12:08:12.643Z,1.20
2023-03-22T12:10:42.953Z,1.13
2023-03-22T12:14:05.846Z,1.08
2023-03-22T12:16:45.300Z,1.83
2023-03-22T12:19:24.120Z,1.17
2023-03-22T12:21:52.087Z,1.20
2023-03-22T12:24:32.328Z,1.00
2023-03-22T12:27:07.358Z,0.82
2023-03-22T12:29:35.474Z,0.85
2023-03-22T12:32:12.125Z,1.10
2023-03-22T12:35:16.054Z,1.00
2023-03-22T12:37:48.823Z,1.02
2023-03-22T12:40:33.868Z,1.02
2023-03-22T12:43:41.644Z,0.95
2023-03-22T12:46:18.856Z,0.98
2023-03-22T12:49:19.299Z,1.40
2023-03-22T12:51:47.320Z,0.90
2023-03-22T12:54:18.327Z,1.08
2023-03-22T12:56:46.860Z,1.20
2023-03-22T12:59:31.764Z,0.88
2023-03-22T13:02:06.610Z,0.90
2023-03-22T13:04:52.381Z,1.05
2023-03-22T13:07:31.139Z,1.08
2023-03-22T13:10:22.100Z,0.88
2023-03-22T13:13:07.528Z,0.90
2023-03-22T13:15:41.814Z,1.10
2023-03-22T13:18:40.302Z,1.17
2023-03-22T13:21:17.814Z,1.70
2023-03-22T13:24:22.028Z,1.17
2023-03-22T13:26:54.217Z,0.90
2023-03-22T13:29:24.594Z,0.73
2023-03-22T13:31:52.793Z,0.98
2023-03-22T13:34:30.713Z,1.02
2023-03-22T13:36:58.958Z,1.08
2023-03-22T13:39:32.019Z,1.20
2023-03-22T13:44:44.001Z,0.93
2023-03-22T13:47:44.548Z,1.00
2023-03-22T13:50:30.141Z,1.38
2023-03-22T13:53:07.810Z,1.15
2023-03-22T13:55:37.249Z,1.00
2023-03-22T13:58:09.271Z,0.82
2023-03-22T14:00:39.942Z,0.90
2023-03-22T14:03:16.230Z,1.25
2023-03-22T14:05:47.659Z,1.08
2023-03-22T14:08:23.289Z,1.08
2023-03-22T14:10:56.696Z,1.10
2023-03-22T14:13:45.858Z,1.17
2023-03-22T14:16:21.769Z,0.93
2023-03-22T14:18:51.234Z,0.88
2023-03-22T14:21:22.815Z,1.00
